Map

Track Data

SID SEASON NUMBER BASIN SUBBASIN NAME ISO_TIME NATURE LAT LON WMO_WIND WMO_PRES WMO_AGENCY TRACK_TYPE DIST2LAND LANDFALL IFLAG USA_AGENCY USA_ATCF_ID USA_LAT USA_LON USA_RECORD USA_STATUS USA_WIND USA_PRES USA_SSHS USA_R34_NE USA_R34_SE USA_R34_SW USA_R34_NW USA_R50_NE USA_R50_SE USA_R50_SW USA_R50_NW USA_R64_NE USA_R64_SE USA_R64_SW USA_R64_NW USA_POCI USA_ROCI USA_RMW USA_EYE TOKYO_LAT TOKYO_LON TOKYO_GRADE TOKYO_WIND TOKYO_PRES TOKYO_R50_DIR TOKYO_R50_LONG TOKYO_R50_SHORT TOKYO_R30_DIR TOKYO_R30_LONG TOKYO_R30_SHORT TOKYO_LAND CMA_LAT CMA_LON CMA_CAT CMA_WIND CMA_PRES HKO_LAT HKO_LON HKO_CAT HKO_WIND HKO_PRES NEWDELHI_LAT NEWDELHI_LON NEWDELHI_GRADE NEWDELHI_WIND NEWDELHI_PRES NEWDELHI_CI NEWDELHI_DP NEWDELHI_POCI REUNION_LAT REUNION_LON REUNION_TYPE REUNION_WIND REUNION_PRES REUNION_TNUM REUNION_CI REUNION_RMW REUNION_R34_NE REUNION_R34_SE REUNION_R34_SW REUNION_R34_NW REUNION_R50_NE REUNION_R50_SE REUNION_R50_SW REUNION_R50_NW REUNION_R64_NE REUNION_R64_SE REUNION_R64_SW REUNION_R64_NW BOM_LAT BOM_LON BOM_TYPE BOM_WIND BOM_PRES BOM_TNUM BOM_CI BOM_RMW BOM_R34_NE BOM_R34_SE BOM_R34_SW BOM_R34_NW BOM_R50_NE BOM_R50_SE BOM_R50_SW BOM_R50_NW BOM_R64_NE BOM_R64_SE BOM_R64_SW BOM_R64_NW BOM_ROCI BOM_POCI BOM_EYE BOM_POS_METHOD BOM_PRES_METHOD NADI_LAT NADI_LON NADI_CAT NADI_WIND NADI_PRES WELLINGTON_LAT WELLINGTON_LON WELLINGTON_WIND WELLINGTON_PRES DS824_LAT DS824_LON DS824_STAGE DS824_WIND DS824_PRES TD9636_LAT TD9636_LON TD9636_STAGE TD9636_WIND TD9636_PRES TD9635_LAT TD9635_LON TD9635_WIND TD9635_PRES TD9635_ROCI NEUMANN_LAT NEUMANN_LON NEUMANN_CLASS NEUMANN_WIND NEUMANN_PRES MLC_LAT MLC_LON MLC_CLASS MLC_WIND MLC_PRES USA_GUST BOM_GUST BOM_GUST_PER REUNION_GUST REUNION_GUST_PER USA_SEAHGT USA_SEARAD_NE USA_SEARAD_SE USA_SEARAD_SW USA_SEARAD_NW STORM_SPEED STORM_DIR
1981219N11334 1981 62 NA NA DENNIS 1981-08-07 06:00:00 TS 10.5000 -25.7000 30 1009 hurdat_atl main 993 993 O_____________ hurdat_atl AL101981 10.5000 -25.7000 TD 30 1009 -1 26 277
1981219N11334 1981 62 NA NA DENNIS 1981-08-07 09:00:00 TS 10.6641 -26.9946 main 1123 1123 P_____________ AL101981 10.6641 -26.9946 TD 30 1008 -1 24 277
1981219N11334 1981 62 NA NA DENNIS 1981-08-07 12:00:00 TS 10.8000 -28.1000 30 1008 hurdat_atl main 1230 1230 O_____________ hurdat_atl AL101981 10.8000 -28.1000 TD 30 1008 -1 19 277
1981219N11334 1981 62 NA NA DENNIS 1981-08-07 15:00:00 TS 10.8991 -28.9027 main 1307 1307 P_____________ AL101981 10.8991 -28.9027 TD 30 1007 -1 15 278
1981219N11334 1981 62 NA NA DENNIS 1981-08-07 18:00:00 TS 11.0000 -29.6000 30 1007 hurdat_atl main 1376 1376 O_____________ hurdat_atl AL101981 11.0000 -29.6000 TD 30 1007 -1 15 279
1981219N11334 1981 62 NA NA DENNIS 1981-08-07 21:00:00 TS 11.1348 -30.4276 main 1455 1455 P_____________ AL101981 11.1348 -30.4276 TD 32 1006 -1 17 280
1981219N11334 1981 62 NA NA DENNIS 1981-08-08 00:00:00 TS 11.3000 -31.3000 35 1006 hurdat_atl main 1543 1543 O_____________ hurdat_atl AL101981 11.3000 -31.3000 TS 35 1006 0 18 282
1981219N11334 1981 62 NA NA DENNIS 1981-08-08 03:00:00 TS 11.4997 -32.1850 main 1632 1632 P_____________ AL101981 11.4997 -32.1850 TS 35 1005 0 18 283
1981219N11334 1981 62 NA NA DENNIS 1981-08-08 06:00:00 TS 11.7000 -33.1000 35 1005 hurdat_atl main 1722 1722 O_____________ hurdat_atl AL101981 11.7000 -33.1000 TS 35 1005 0 19 281
1981219N11334 1981 62 NA NA DENNIS 1981-08-08 09:00:00 TS 11.8424 -34.0578 main 1763 1751 P_____________ AL101981 11.8424 -34.0578 TS 35 1004 0 19 279
1981219N11334 1981 62 NA NA DENNIS 1981-08-08 12:00:00 TS 12.0000 -35.0000 35 1004 hurdat_atl main 1751 1745 O_____________ hurdat_atl AL101981 12.0000 -35.0000 TS 35 1004 0 18 283
1981219N11334 1981 62 NA NA DENNIS 1981-08-08 15:00:00 TS 12.2494 -35.8425 main 1748 1748 P_____________ AL101981 12.2494 -35.8425 TS 37 1003 0 17 287
1981219N11334 1981 62 NA NA DENNIS 1981-08-08 18:00:00 TS 12.5000 -36.7000 40 1003 hurdat_atl main 1759 1753 O_____________ hurdat_atl AL101981 12.5000 -36.7000 TS 40 1003 0 18 283
1981219N11334 1981 62 NA NA DENNIS 1981-08-08 21:00:00 TS 12.6648 -37.6703 main 1763 1690 P_____________ AL101981 12.6648 -37.6703 TS 40 1002 0 20 279
1981219N11334 1981 62 NA NA DENNIS 1981-08-09 00:00:00 TS 12.8000 -38.7000 40 1002 hurdat_atl main 1680 1598 O_____________ hurdat_atl AL101981 12.8000 -38.7000 TS 40 1002 0 20 278
1981219N11334 1981 62 NA NA DENNIS 1981-08-09 03:00:00 TS 12.9571 -39.7350 main 1604 1525 P_____________ AL101981 12.9571 -39.7350 TS 40 1001 0 21 278
1981219N11334 1981 62 NA NA DENNIS 1981-08-09 06:00:00 TS 13.1000 -40.8000 40 1001 hurdat_atl main 1517 1443 O_____________ hurdat_atl AL101981 13.1000 -40.8000 TS 40 1001 0 21 277
1981219N11334 1981 62 NA NA DENNIS 1981-08-09 09:00:00 TS 13.2073 -41.9076 main 1435 1366 P_____________ AL101981 13.2073 -41.9076 TS 40 1001 0 22 275
1981219N11334 1981 62 NA NA DENNIS 1981-08-09 12:00:00 TS 13.3000 -43.0000 40 1001 hurdat_atl main 1359 1296 O_____________ hurdat_atl AL101981 13.3000 -43.0000 TS 40 1001 0 21 276
1981219N11334 1981 62 NA NA DENNIS 1981-08-09 15:00:00 TS 13.4144 -44.0149 main 1296 1247 P_____________ AL101981 13.4144 -44.0149 TS 40 1001 0 20 276
1981219N11334 1981 62 NA NA DENNIS 1981-08-09 18:00:00 TS 13.5000 -45.0000 40 1001 hurdat_atl main 1241 1185 O_____________ hurdat_atl AL101981 13.5000 -45.0000 TS 40 1001 0 19 273
1981219N11334 1981 62 NA NA DENNIS 1981-08-09 21:00:00 TS 13.5146 -46.0002 main 1178 1120 P_____________ AL101981 13.5146 -46.0002 TS 40 1001 0 19 270
1981219N11334 1981 62 NA NA DENNIS 1981-08-10 00:00:00 TS 13.5000 -47.0000 40 1001 hurdat_atl main 1114 1063 O_____________ hurdat_atl AL101981 13.5000 -47.0000 TS 40 1001 0 19 270
1981219N11334 1981 62 NA NA DENNIS 1981-08-10 03:00:00 TS 13.4996 -48.0000 main 1057 1013 P_____________ AL101981 13.4996 -48.0000 TS 40 1001 0 19 270
1981219N11334 1981 62 NA NA DENNIS 1981-08-10 06:00:00 TS 13.5000 -49.0000 40 1002 hurdat_atl main 1008 967 O_____________ hurdat_atl AL101981 13.5000 -49.0000 TS 40 1002 0 20 270
1981219N11334 1981 62 NA NA DENNIS 1981-08-10 09:00:00 TS 13.4922 -50.0076 main 967 924 P_____________ AL101981 13.4922 -50.0076 TS 40 1003 0 19 270
1981219N11334 1981 62 NA NA DENNIS 1981-08-10 12:00:00 TS 13.5000 -51.0000 40 1004 hurdat_atl main 920 887 O_____________ hurdat_atl AL101981 13.5000 -51.0000 TS 40 1004 0 19 271
1981219N11334 1981 62 NA NA DENNIS 1981-08-10 15:00:00 TS 13.5345 -51.9501 main 884 876 P_____________ AL101981 13.5345 -51.9501 TS 37 1005 0 19 273
1981219N11334 1981 62 NA NA DENNIS 1981-08-10 18:00:00 TS 13.6000 -52.9000 35 1006 hurdat_atl main 874 841 O_____________ hurdat_atl AL101981 13.6000 -52.9000 TS 35 1006 0 19 275
1981219N11334 1981 62 NA NA DENNIS 1981-08-10 21:00:00 TS 13.6925 -53.9224 main 841 758 P_____________ AL101981 13.6925 -53.9224 TS 32 1006 -1 20 276
1981219N11334 1981 62 NA NA DENNIS 1981-08-11 00:00:00 TS 13.8000 -54.9000 30 1007 hurdat_atl main 748 678 O_____________ hurdat_atl AL101981 13.8000 -54.9000 TD 30 1007 -1 18 277
1981219N11334 1981 62 NA NA DENNIS 1981-08-11 03:00:00 TS 13.8918 -55.7152 main 678 612 P_____________ AL101981 13.8918 -55.7152 TD 30 1007 -1 16 277
1981219N11334 1981 62 NA NA DENNIS 1981-08-11 06:00:00 TS 14.0000 -56.5000 30 1008 hurdat_atl main 612 553 O_____________ hurdat_atl AL101981 14.0000 -56.5000 TD 30 1008 -1 16 279
1981219N11334 1981 62 NA NA DENNIS 1981-08-11 09:00:00 TS 14.1423 -57.3850 main 545 504 P_____________ AL101981 14.1423 -57.3850 TD 30 1008 -1 18 280
1981219N11334 1981 62 NA NA DENNIS 1981-08-11 12:00:00 TS 14.3000 -58.3000 30 1009 hurdat_atl main 498 458 O_____________ hurdat_atl AL101981 14.3000 -58.3000 TD 30 1009 -1 18 280
1981219N11334 1981 62 NA NA DENNIS 1981-08-11 15:00:00 TS 14.4497 -59.2001 main 458 445 P_____________ AL101981 14.4497 -59.2001 TD 30 1009 -1 18 280
1981219N11334 1981 62 NA CS DENNIS 1981-08-11 18:00:00 TS 14.6000 -60.1000 30 1010 hurdat_atl main 447 441 O_____________ hurdat_atl AL101981 14.6000 -60.1000 TD 30 1010 -1 18 280
1981219N11334 1981 62 NA CS DENNIS 1981-08-11 21:00:00 TS 14.7496 -60.9926 main 447 447 P_____________ AL101981 14.7496 -60.9926 TD 27 1010 -1 18 280
1981219N11334 1981 62 NA CS DENNIS 1981-08-12 00:00:00 TS 14.9000 -61.9000 25 1010 hurdat_atl main 470 463 O_____________ hurdat_atl AL101981 14.9000 -61.9000 TD 25 1010 -1 18 280
1981219N11334 1981 62 NA CS DENNIS 1981-08-12 03:00:00 TS 15.0572 -62.8425 main 455 385 P_____________ AL101981 15.0572 -62.8425 TD 25 1010 -1 19 279
1981219N11334 1981 62 NA CS DENNIS 1981-08-12 06:00:00 TS 15.2000 -63.8000 25 1011 hurdat_atl main 378 324 O_____________ hurdat_atl AL101981 15.2000 -63.8000 TD 25 1011 -1 19 278
1981219N11334 1981 62 NA CS DENNIS 1981-08-12 09:00:00 TS 15.3071 -64.7502 main 320 286 P_____________ AL101981 15.3071 -64.7502 TD 25 1011 -1 18 276
1981219N11334 1981 62 NA CS DENNIS 1981-08-12 12:00:00 TS 15.4000 -65.7000 25 1011 hurdat_atl main 284 268 O_____________ hurdat_atl AL101981 15.4000 -65.7000 TD 25 1011 -1 18 276
1981219N11334 1981 62 NA CS DENNIS 1981-08-12 15:00:00 TS 15.4996 -66.6501 main 269 257 P_____________ AL101981 15.4996 -66.6501 TD 25 1011 -1 18 276
1981219N11334 1981 62 NA CS DENNIS 1981-08-12 18:00:00 TS 15.6000 -67.6000 25 1011 hurdat_atl main 260 260 O_____________ hurdat_atl AL101981 15.6000 -67.6000 TD 25 1011 -1 19 276
1981219N11334 1981 62 NA CS DENNIS 1981-08-12 21:00:00 TS 15.7073 -68.5650 main 279 269 P_____________ AL101981 15.7073 -68.5650 TD 20 -1 18 276
1981219N11334 1981 62 NA CS DENNIS 1981-08-13 00:00:00 DS 15.8000 -69.5000 15 hurdat_atl main 278 233 O_____________ hurdat_atl AL101981 15.8000 -69.5000 WV 15 -3 17 275
1981219N11334 1981 62 NA CS DENNIS 1981-08-13 03:00:00 DS 15.8496 -70.3727 main 227 191 P_____________ AL101981 15.8496 -70.3727 WV 15 -3 16 274
1981219N11334 1981 62 NA CS DENNIS 1981-08-13 06:00:00 DS 15.9000 -71.2000 15 hurdat_atl main 191 181 O_____________ hurdat_atl AL101981 15.9000 -71.2000 WV 15 -3 16 275
1981219N11334 1981 62 NA CS DENNIS 1981-08-13 09:00:00 DS 15.9846 -72.0076 main 190 190 P_____________ AL101981 15.9846 -72.0076 WV 15 -3 16 277
1981219N11334 1981 62 NA CS DENNIS 1981-08-13 12:00:00 DS 16.1000 -72.8000 15 hurdat_atl main 223 202 O_____________ hurdat_atl AL101981 16.1000 -72.8000 WV 15 -3 16 279
1981219N11334 1981 62 NA CS DENNIS 1981-08-13 15:00:00 DS 16.2349 -73.6225 main 202 181 P_____________ AL101981 16.2349 -73.6225 WV 15 -3 16 281
1981219N11334 1981 62 NA CS DENNIS 1981-08-13 18:00:00 DS 16.4000 -74.4000 15 hurdat_atl main 186 183 O_____________ hurdat_atl AL101981 16.4000 -74.4000 WV 15 -3 14 284
1981219N11334 1981 62 NA CS DENNIS 1981-08-13 21:00:00 DS 16.5771 -75.0728 main 186 134 P_____________ AL101981 16.5771 -75.0728 WV 15 -3 13 288
1981219N11334 1981 62 NA CS DENNIS 1981-08-14 00:00:00 DS 16.8000 -75.7000 15 hurdat_atl main 134 89 O_____________ hurdat_atl AL101981 16.8000 -75.7000 WV 15 -3 13 292
1981219N11334 1981 62 NA CS DENNIS 1981-08-14 03:00:00 DS 17.0850 -76.3724 main 89 39 P_____________ AL101981 17.0850 -76.3724 WV 15 -3 14 296
1981219N11334 1981 62 NA CS DENNIS 1981-08-14 06:00:00 DS 17.4000 -77.0000 15 hurdat_atl main 39 15 O_____________ hurdat_atl AL101981 17.4000 -77.0000 WV 15 -3 13 298
1981219N11334 1981 62 NA CS DENNIS 1981-08-14 09:00:00 DS 17.6848 -77.5378 main 22 10 P_____________ AL101981 17.6848 -77.5378 WV 15 -3 11 302
1981219N11334 1981 62 NA CS DENNIS 1981-08-14 12:00:00 DS 18.0000 -78.0000 15 hurdat_atl main 15 0 O_____________ hurdat_atl AL101981 18.0000 -78.0000 WV 15 -3 11 310
1981219N11334 1981 62 NA CS DENNIS 1981-08-14 15:00:00 DS 18.3924 -78.4226 main 10 10 P_____________ AL101981 18.3924 -78.4226 WV 15 -3 11 317
1981219N11334 1981 62 NA CS DENNIS 1981-08-14 18:00:00 DS 18.8000 -78.8000 15 hurdat_atl main 69 69 O_____________ hurdat_atl AL101981 18.8000 -78.8000 WV 15 -3 10 317
1981219N11334 1981 62 NA CS DENNIS 1981-08-14 21:00:00 DS 19.1500 -79.1727 main 122 122 P_____________ AL101981 19.1500 -79.1727 WV 15 -3 10 317
1981219N11334 1981 62 NA CS DENNIS 1981-08-15 00:00:00 DS 19.5000 -79.5000 15 hurdat_atl main 176 175 O_____________ hurdat_atl AL101981 19.5000 -79.5000 WV 15 -3 9 323
1981219N11334 1981 62 NA CS DENNIS 1981-08-15 03:00:00 DS 19.8999 -79.7652 main 182 154 P_____________ AL101981 19.8999 -79.7652 WV 15 -3 9 330
1981219N11334 1981 62 NA CS DENNIS 1981-08-15 06:00:00 DS 20.3000 -80.0000 15 hurdat_atl main 154 124 O_____________ hurdat_atl AL101981 20.3000 -80.0000 WV 15 -3 9 328
1981219N11334 1981 62 NA CS DENNIS 1981-08-15 09:00:00 DS 20.6575 -80.2650 main 116 93 P_____________ AL101981 20.6575 -80.2650 WV 15 -3 8 326
1981219N11334 1981 62 NA CS DENNIS 1981-08-15 12:00:00 DS 21.0000 -80.5000 15 hurdat_atl main 93 73 O_____________ hurdat_atl AL101981 21.0000 -80.5000 WV 15 -3 8 331
1981219N11334 1981 62 NA CS DENNIS 1981-08-15 15:00:00 DS 21.3500 -80.6726 main 78 44 P_____________ AL101981 21.3500 -80.6726 WV 22 -3 8 338
1981219N11334 1981 62 NA CS DENNIS 1981-08-15 18:00:00 TS 21.7000 -80.8000 30 1007 hurdat_atl main 44 11 O_____________ hurdat_atl AL101981 21.7000 -80.8000 TD 30 1007 -1 7 343
1981219N11334 1981 62 NA CS DENNIS 1981-08-15 21:00:00 TS 22.0575 -80.9076 main 0 0 P_____________ AL101981 22.0575 -80.9076 TD 32 1006 -1 7 345
1981219N11334 1981 62 NA NA DENNIS 1981-08-16 00:00:00 TS 22.4000 -81.0000 35 1005 hurdat_atl main 0 0 O_____________ hurdat_atl AL101981 22.4000 -81.0000 TS 35 1005 0 7 344
1981219N11334 1981 62 NA NA DENNIS 1981-08-16 03:00:00 TS 22.6925 -81.1001 main 0 0 P_____________ AL101981 22.6925 -81.1001 TS 35 1004 0 6 343
1981219N11334 1981 62 NA NA DENNIS 1981-08-16 06:00:00 TS 23.0000 -81.2000 35 1003 hurdat_atl main 0 0 O_____________ hurdat_atl AL101981 23.0000 -81.2000 TS 35 1003 0 7 344
1981219N11334 1981 62 NA NA DENNIS 1981-08-16 09:00:00 TS 23.3925 -81.3223 main 33 33 P_____________ AL101981 23.3925 -81.3223 TS 35 1002 0 8 347
1981219N11334 1981 62 NA NA DENNIS 1981-08-16 12:00:00 TS 23.8000 -81.4000 35 1001 hurdat_atl main 78 78 O_____________ hurdat_atl AL101981 23.8000 -81.4000 TS 35 1001 0 8 357
1981219N11334 1981 62 NA NA DENNIS 1981-08-16 15:00:00 TS 24.1800 -81.3652 main 105 70 P_____________ AL101981 24.1800 -81.3652 TS 35 1000 0 7 7
1981219N11334 1981 62 NA NA DENNIS 1981-08-16 18:00:00 TS 24.5000 -81.3000 35 1000 hurdat_atl main 70 49 O_____________ hurdat_atl AL101981 24.5000 -81.3000 TS 35 1000 0 6 5
1981219N11334 1981 62 NA NA DENNIS 1981-08-16 21:00:00 TS 24.7300 -81.2999 main 49 30 P_____________ AL101981 24.7300 -81.2999 TS 35 999 0 4 0
1981219N11334 1981 62 NA GM DENNIS 1981-08-17 00:00:00 TS 24.9000 -81.3000 35 998 hurdat_atl main 30 23 O_____________ hurdat_atl AL101981 24.9000 -81.3000 TS 35 998 0 3 6
1981219N11334 1981 62 NA GM DENNIS 1981-08-17 03:00:00 TS 25.0350 -81.2500 main 23 0 P_____________ AL101981 25.0350 -81.2500 TS 35 998 0 3 16
1981219N11334 1981 62 NA GM DENNIS 1981-08-17 06:00:00 TS 25.2000 -81.2000 35 999 hurdat_atl main 0 0 O_____________ hurdat_atl AL101981 25.2000 -81.2000 TS 35 999 0 5 7
1981219N11334 1981 62 NA GM DENNIS 1981-08-17 09:00:00 TS 25.4925 -81.1925 main 0 0 P_____________ AL101981 25.4925 -81.1925 TS 35 999 0 6 1
1981219N11334 1981 62 NA NA DENNIS 1981-08-17 12:00:00 TS 25.8000 -81.2000 35 999 hurdat_atl main 0 0 O_____________ hurdat_atl AL101981 25.8000 -81.2000 TS 35 999 0 5 0
1981219N11334 1981 62 NA NA DENNIS 1981-08-17 15:00:00 TS 26.0225 -81.2000 main 0 0 P_____________ AL101981 26.0225 -81.2000 TS 35 1000 0 4 0
1981219N11334 1981 62 NA NA DENNIS 1981-08-17 18:00:00 TS 26.2000 -81.2000 35 1001 hurdat_atl main 0 0 O_____________ hurdat_atl AL101981 26.2000 -81.2000 TS 35 1001 0 3 356
1981219N11334 1981 62 NA NA DENNIS 1981-08-17 21:00:00 TS 26.3575 -81.2075 main 0 0 P_____________ AL101981 26.3575 -81.2075 TS 35 1002 0 3 0
1981219N11334 1981 62 NA NA DENNIS 1981-08-18 00:00:00 TS 26.5000 -81.2000 35 1003 hurdat_atl main 0 0 O_____________ hurdat_atl AL101981 26.5000 -81.2000 TS 35 1003 0 3 8
1981219N11334 1981 62 NA NA DENNIS 1981-08-18 03:00:00 TS 26.6425 -81.1575 main 0 0 P_____________ AL101981 26.6425 -81.1575 TS 35 1003 0 3 16
1981219N11334 1981 62 NA NA DENNIS 1981-08-18 06:00:00 TS 26.8000 -81.1000 35 1004 hurdat_atl main 0 0 O_____________ hurdat_atl AL101981 26.8000 -81.1000 TS 35 1004 0 4 16
1981219N11334 1981 62 NA NA DENNIS 1981-08-18 09:00:00 TS 26.9925 -81.0425 main 0 0 P_____________ AL101981 26.9925 -81.0425 TS 35 1004 0 4 12
1981219N11334 1981 62 NA NA DENNIS 1981-08-18 12:00:00 TS 27.2000 -81.0000 35 1005 hurdat_atl main 0 0 O_____________ hurdat_atl AL101981 27.2000 -81.0000 TS 35 1005 0 4 8
1981219N11334 1981 62 NA NA DENNIS 1981-08-18 15:00:00 TS 27.3475 -81.0073 main 0 0 P_____________ AL101981 27.3475 -81.0073 TS 35 1005 0 4 0
1981219N11334 1981 62 NA NA DENNIS 1981-08-18 18:00:00 TS 27.6000 -81.0000 35 1005 hurdat_atl main 0 0 O_____________ hurdat_atl AL101981 27.6000 -81.0000 TS 35 1005 0 8 8
1981219N11334 1981 62 NA NA DENNIS 1981-08-18 21:00:00 TS 28.1051 -80.9004 main 0 0 P_____________ AL101981 28.1051 -80.9004 TS 35 1004 0 11 9
1981219N11334 1981 62 NA NA DENNIS 1981-08-19 00:00:00 TS 28.7000 -80.8000 35 1004 hurdat_atl main 0 0 O_____________ hurdat_atl AL101981 28.7000 -80.8000 TS 35 1004 0 11 6
1981219N11334 1981 62 NA NA DENNIS 1981-08-19 03:00:00 TS 29.1850 -80.7848 main 14 14 P_____________ AL101981 29.1850 -80.7848 TS 37 1003 0 10 1
1981219N11334 1981 62 NA NA DENNIS 1981-08-19 06:00:00 TS 29.7000 -80.8000 40 1003 hurdat_atl main 40 40 O_____________ hurdat_atl AL101981 29.7000 -80.8000 TS 40 1003 0 12 356
1981219N11334 1981 62 NA NA DENNIS 1981-08-19 09:00:00 TS 30.3348 -80.8662 main 52 47 P_____________ AL101981 30.3348 -80.8662 TS 40 1002 0 13 1
1981219N11334 1981 62 NA NA DENNIS 1981-08-19 12:00:00 TS 31.0000 -80.8000 40 1002 hurdat_atl main 57 50 O_____________ hurdat_atl AL101981 31.0000 -80.8000 TS 40 1002 0 13 16
1981219N11334 1981 62 NA NA DENNIS 1981-08-19 15:00:00 TS 31.6076 -80.4329 main 57 45 P_____________ AL101981 31.6076 -80.4329 TS 42 1001 0 14 33
1981219N11334 1981 62 NA NA DENNIS 1981-08-19 18:00:00 TS 32.2000 -79.9000 45 1001 hurdat_atl main 45 22 O_____________ hurdat_atl AL101981 32.2000 -79.9000 TS 45 1001 0 15 36
1981219N11334 1981 62 NA NA DENNIS 1981-08-19 21:00:00 TS 32.7916 -79.4157 main 22 9 P_____________ AL101981 32.7916 -79.4157 TS 47 1000 0 15 38
1981219N11334 1981 62 NA NA DENNIS 1981-08-20 00:00:00 TS 33.4000 -78.8000 50 999 hurdat_atl main 28 0 O_____________ hurdat_atl AL101981 33.4000 -78.8000 TS 50 999 0 18 43
1981219N11334 1981 62 NA NA DENNIS 1981-08-20 03:00:00 TS 34.0803 -77.9537 main 0 0 P_____________ AL101981 34.0803 -77.9537 TS 52 998 0 20 49
1981219N11334 1981 62 NA NA DENNIS 1981-08-20 06:00:00 TS 34.7000 -77.0000 55 998 hurdat_atl main 0 0 O_____________ hurdat_atl AL101981 34.7000 -77.0000 TS 55 998 0 18 55
1981219N11334 1981 62 NA NA DENNIS 1981-08-20 09:00:00 TS 35.1361 -76.1275 main 24 14 P_____________ AL101981 35.1361 -76.1275 TS 57 997 0 17 61
1981219N11334 1981 62 NA NA DENNIS 1981-08-20 12:00:00 TS 35.5000 -75.2000 60 997 hurdat_atl main 42 42 O_____________ hurdat_atl AL101981 35.5000 -75.2000 TS 60 997 0 18 65
1981219N11334 1981 62 NA NA DENNIS 1981-08-20 15:00:00 TS 35.8989 -74.1588 main 117 117 P_____________ AL101981 35.8989 -74.1588 TS 62 996 0 20 66
1981219N11334 1981 62 NA NA DENNIS 1981-08-20 18:00:00 TS 36.3000 -73.0000 65 995 hurdat_atl main 231 231 O_____________ hurdat_atl AL101981 36.3000 -73.0000 HU 65 995 1 21 68
1981219N11334 1981 62 NA NA DENNIS 1981-08-20 21:00:00 TS 36.7075 -71.7147 main 348 348 P_____________ AL101981 36.7075 -71.7147 HU 67 995 1 22 69
1981219N11334 1981 62 NA NA DENNIS 1981-08-21 00:00:00 TS 37.1000 -70.4000 70 995 hurdat_atl main 431 431 O_____________ hurdat_atl AL101981 37.1000 -70.4000 HU 70 995 1 21 69
1981219N11334 1981 62 NA NA DENNIS 1981-08-21 03:00:00 TS 37.4853 -69.1996 main 463 459 P_____________ AL101981 37.4853 -69.1996 HU 62 996 0 20 70
1981219N11334 1981 62 NA NA DENNIS 1981-08-21 06:00:00 TS 37.8000 -68.0000 55 998 hurdat_atl main 466 466 O_____________ hurdat_atl AL101981 37.8000 -68.0000 TS 55 998 0 20 76
1981219N11334 1981 62 NA NA DENNIS 1981-08-21 09:00:00 TS 37.9790 -66.7131 main 498 498 P_____________ AL101981 37.9790 -66.7131 TS 50 999 0 21 82
1981219N11334 1981 62 NA NA DENNIS 1981-08-21 12:00:00 TS 38.1000 -65.4000 45 1000 hurdat_atl main 559 559 O_____________ hurdat_atl AL101981 38.1000 -65.4000 TS 45 1000 0 20 81
1981219N11334 1981 62 NA NA DENNIS 1981-08-21 15:00:00 TS 38.3147 -64.1407 main 587 579 P_____________ AL101981 38.3147 -64.1407 TS 42 1001 0 21 82
1981219N11334 1981 62 NA NA DENNIS 1981-08-21 18:00:00 TS 38.4000 -62.8000 40 1003 hurdat_atl main 604 604 O_____________ hurdat_atl AL101981 38.4000 -62.8000 TS 40 1003 0 22 93
1981219N11334 1981 62 NA NA DENNIS 1981-08-21 21:00:00 TS 38.1953 -61.2937 main 678 678 P_____________ AL101981 38.1953 -61.2937 TS 37 1004 0 25 104
1981219N11334 1981 62 NA NA DENNIS 1981-08-22 00:00:00 ET 37.8000 -59.7000 35 1005 hurdat_atl main 789 O_____________ hurdat_atl AL101981 37.8000 -59.7000 EX 35 1005 -4 26 107

About IBTrACS Database

This database is a web-friendly format of International Best Track Archive for Climate Stewardship (IBTrACS), a global best track data archive curated by NOAA dating back to 1842.

Updated: 2021-12-03